Macon, Georgia
Current Conditions -  °F | °C
As of 2:53 PM on Saturday 20 Dec 2014 (Local Time) from KMCN Reporting Station
Overcast Overcast  
Wind Chill: 53°   Ceiling: 1000
Heat Index: 53°   Visibility: 10mi
Dew Point: 50°   Wind: 6mph
Humidity: 89%   Direction: 50°NE
Pressure: 30.14"   Gusts: NA
Location:  32.84°N, 83.64°W
Report Text: KMCN 201953Z 05005KT 10SM OVC010 12/10 A3014 RMK AO2 SLP204 T01170100
Loading
Personal Weather Stations






























Interactive Weather Map New forecast layout! Learn more

10-Day Weather Forecast

Advertisements
Track Severe Weather on mobile